sensor_id;sensor_type;location;lat;lon;timestamp;P1;durP1;ratioP1;P2;durP2;ratioP2
69334;SDS011;56477;52.742;15.242;2022-10-26T00:00:26;69.22;;;13.60;;
69334;SDS011;56477;52.742;15.242;2022-10-26T00:03:13;53.70;;;12.97;;
69334;SDS011;56477;52.742;15.242;2022-10-26T00:05:39;38.67;;;12.93;;
69334;SDS011;56477;52.742;15.242;2022-10-26T00:08:05;39.15;;;12.85;;
69334;SDS011;56477;52.742;15.242;2022-10-26T00:10:33;34.67;;;12.82;;
69334;SDS011;56477;52.742;15.242;2022-10-26T00:13:00;32.85;;;13.02;;
69334;SDS011;56477;52.742;15.242;2022-10-26T00:15:27;42.30;;;12.77;;
69334;SDS011;56477;52.742;15.242;2022-10-26T00:17:53;30.35;;;11.80;;
69334;SDS011;56477;52.742;15.242;2022-10-26T00:20:19;30.90;;;11.30;;
69334;SDS011;56477;52.742;15.242;2022-10-26T00:22:45;29.85;;;11.45;;
69334;SDS011;56477;52.742;15.242;2022-10-26T00:25:11;32.27;;;11.53;;
69334;SDS011;56477;52.742;15.242;2022-10-26T00:27:37;31.33;;;11.13;;
69334;SDS011;56477;52.742;15.242;2022-10-26T00:30:03;30.08;;;10.95;;
69334;SDS011;56477;52.742;15.242;2022-10-26T00:32:30;30.52;;;10.73;;
69334;SDS011;56477;52.742;15.242;2022-10-26T00:34:57;33.93;;;11.17;;
69334;SDS011;56477;52.742;15.242;2022-10-26T00:37:22;29.10;;;10.55;;
69334;SDS011;56477;52.742;15.242;2022-10-26T00:39:49;29.20;;;10.90;;
69334;SDS011;56477;52.742;15.242;2022-10-26T00:42:17;25.40;;;10.50;;
69334;SDS011;56477;52.742;15.242;2022-10-26T00:47:35;28.27;;;10.93;;
69334;SDS011;56477;52.742;15.242;2022-10-26T00:49:59;29.23;;;10.50;;
69334;SDS011;56477;52.742;15.242;2022-10-26T00:52:28;28.75;;;10.52;;
69334;SDS011;56477;52.742;15.242;2022-10-26T00:54:55;27.60;;;9.87;;
69334;SDS011;56477;52.742;15.242;2022-10-26T00:57:21;25.83;;;10.57;;
69334;SDS011;56477;52.742;15.242;2022-10-26T00:59:47;27.77;;;10.93;;
69334;SDS011;56477;52.742;15.242;2022-10-26T01:02:16;29.95;;;11.35;;
69334;SDS011;56477;52.742;15.242;2022-10-26T01:04:44;30.45;;;11.13;;
69334;SDS011;56477;52.742;15.242;2022-10-26T01:07:10;29.37;;;10.17;;
69334;SDS011;56477;52.742;15.242;2022-10-26T01:09:38;29.88;;;10.38;;
69334;SDS011;56477;52.742;15.242;2022-10-26T01:12:04;29.08;;;10.68;;
69334;SDS011;56477;52.742;15.242;2022-10-26T01:14:30;30.90;;;11.50;;
69334;SDS011;56477;52.742;15.242;2022-10-26T01:19:55;26.77;;;10.63;;
69334;SDS011;56477;52.742;15.242;2022-10-26T01:22:38;29.13;;;10.77;;
69334;SDS011;56477;52.742;15.242;2022-10-26T01:27:38;29.58;;;10.43;;
69334;SDS011;56477;52.742;15.242;2022-10-26T01:36:00;27.10;;;10.73;;
69334;SDS011;56477;52.742;15.242;2022-10-26T01:41:20;32.55;;;10.32;;
69334;SDS011;56477;52.742;15.242;2022-10-26T01:43:54;27.53;;;10.63;;
69334;SDS011;56477;52.742;15.242;2022-10-26T01:46:23;34.33;;;10.35;;
69334;SDS011;56477;52.742;15.242;2022-10-26T01:48:52;26.75;;;10.30;;
69334;SDS011;56477;52.742;15.242;2022-10-26T01:51:20;24.83;;;9.98;;
69334;SDS011;56477;52.742;15.242;2022-10-26T01:53:48;22.30;;;10.25;;
69334;SDS011;56477;52.742;15.242;2022-10-26T01:56:17;26.80;;;9.97;;
69334;SDS011;56477;52.742;15.242;2022-10-26T02:07:10;28.63;;;10.25;;
69334;SDS011;56477;52.742;15.242;2022-10-26T02:12:44;105.68;;;12.35;;
69334;SDS011;56477;52.742;15.242;2022-10-26T02:20:54;117.10;;;11.90;;
69334;SDS011;56477;52.742;15.242;2022-10-26T02:23:25;105.53;;;10.33;;
69334;SDS011;56477;52.742;15.242;2022-10-26T02:25:57;66.63;;;8.38;;
69334;SDS011;56477;52.742;15.242;2022-10-26T02:28:27;73.40;;;8.63;;
69334;SDS011;56477;52.742;15.242;2022-10-26T02:30:59;122.05;;;9.38;;
69334;SDS011;56477;52.742;15.242;2022-10-26T02:33:28;116.82;;;9.88;;
69334;SDS011;56477;52.742;15.242;2022-10-26T02:35:57;77.37;;;7.80;;
69334;SDS011;56477;52.742;15.242;2022-10-26T02:38:24;62.10;;;7.63;;
69334;SDS011;56477;52.742;15.242;2022-10-26T02:40:53;94.25;;;8.93;;
69334;SDS011;56477;52.742;15.242;2022-10-26T02:43:21;36.20;;;5.70;;
69334;SDS011;56477;52.742;15.242;2022-10-26T02:45:53;58.95;;;7.88;;
69334;SDS011;56477;52.742;15.242;2022-10-26T02:48:28;132.00;;;8.07;;
69334;SDS011;56477;52.742;15.242;2022-10-26T02:51:02;118.80;;;8.35;;
69334;SDS011;56477;52.742;15.242;2022-10-26T02:53:34;81.10;;;7.75;;
69334;SDS011;56477;52.742;15.242;2022-10-26T02:59:08;47.40;;;6.50;;
69334;SDS011;56477;52.742;15.242;2022-10-26T03:01:37;62.33;;;7.20;;
69334;SDS011;56477;52.742;15.242;2022-10-26T03:04:04;110.45;;;9.85;;
69334;SDS011;56477;52.742;15.242;2022-10-26T03:06:30;123.47;;;11.25;;
69334;SDS011;56477;52.742;15.242;2022-10-26T03:08:56;108.45;;;9.50;;
69334;SDS011;56477;52.742;15.242;2022-10-26T03:11:22;123.20;;;9.50;;
69334;SDS011;56477;52.742;15.242;2022-10-26T03:13:48;77.35;;;9.05;;
69334;SDS011;56477;52.742;15.242;2022-10-26T03:16:14;130.65;;;9.57;;
69334;SDS011;56477;52.742;15.242;2022-10-26T03:18:40;84.53;;;9.00;;
69334;SDS011;56477;52.742;15.242;2022-10-26T03:21:06;110.35;;;10.48;;
69334;SDS011;56477;52.742;15.242;2022-10-26T03:23:32;94.72;;;10.07;;
69334;SDS011;56477;52.742;15.242;2022-10-26T03:25:58;97.97;;;9.90;;
69334;SDS011;56477;52.742;15.242;2022-10-26T03:28:24;16.03;;;4.97;;
69334;SDS011;56477;52.742;15.242;2022-10-26T03:30:50;83.10;;;7.68;;
69334;SDS011;56477;52.742;15.242;2022-10-26T03:33:16;52.20;;;6.68;;
69334;SDS011;56477;52.742;15.242;2022-10-26T03:35:42;27.83;;;5.10;;
69334;SDS011;56477;52.742;15.242;2022-10-26T03:38:08;30.40;;;5.90;;
69334;SDS011;56477;52.742;15.242;2022-10-26T03:40:35;34.55;;;5.32;;
69334;SDS011;56477;52.742;15.242;2022-10-26T03:43:01;73.38;;;7.18;;
69334;SDS011;56477;52.742;15.242;2022-10-26T03:45:27;21.08;;;4.60;;
69334;SDS011;56477;52.742;15.242;2022-10-26T03:47:53;52.23;;;6.97;;
69334;SDS011;56477;52.742;15.242;2022-10-26T03:50:20;71.32;;;7.95;;
69334;SDS011;56477;52.742;15.242;2022-10-26T03:52:47;73.82;;;7.60;;
69334;SDS011;56477;52.742;15.242;2022-10-26T03:55:13;55.95;;;8.15;;
69334;SDS011;56477;52.742;15.242;2022-10-26T03:57:40;74.57;;;8.23;;
69334;SDS011;56477;52.742;15.242;2022-10-26T04:00:07;105.50;;;10.32;;
69334;SDS011;56477;52.742;15.242;2022-10-26T04:02:40;109.90;;;10.15;;
69334;SDS011;56477;52.742;15.242;2022-10-26T04:05:13;100.43;;;11.80;;
69334;SDS011;56477;52.742;15.242;2022-10-26T04:07:41;81.38;;;9.90;;
69334;SDS011;56477;52.742;15.242;2022-10-26T04:10:07;45.73;;;9.00;;
69334;SDS011;56477;52.742;15.242;2022-10-26T04:12:37;124.30;;;11.25;;
69334;SDS011;56477;52.742;15.242;2022-10-26T04:15:04;57.60;;;9.70;;
69334;SDS011;56477;52.742;15.242;2022-10-26T04:17:31;47.97;;;8.63;;
69334;SDS011;56477;52.742;15.242;2022-10-26T04:19:57;115.53;;;11.00;;
69334;SDS011;56477;52.742;15.242;2022-10-26T04:22:23;275.43;;;21.10;;
69334;SDS011;56477;52.742;15.242;2022-10-26T04:24:49;205.40;;;16.60;;
69334;SDS011;56477;52.742;15.242;2022-10-26T04:27:15;235.45;;;17.58;;
69334;SDS011;56477;52.742;15.242;2022-10-26T04:29:41;180.50;;;15.50;;
69334;SDS011;56477;52.742;15.242;2022-10-26T04:32:07;83.55;;;12.77;;
69334;SDS011;56477;52.742;15.242;2022-10-26T04:34:33;40.42;;;10.75;;
69334;SDS011;56477;52.742;15.242;2022-10-26T04:36:59;31.57;;;9.80;;
69334;SDS011;56477;52.742;15.242;2022-10-26T04:39:25;28.75;;;9.38;;
69334;SDS011;56477;52.742;15.242;2022-10-26T04:41:52;39.03;;;12.55;;
69334;SDS011;56477;52.742;15.242;2022-10-26T04:44:18;40.83;;;13.52;;
69334;SDS011;56477;52.742;15.242;2022-10-26T04:46:44;39.90;;;12.23;;
69334;SDS011;56477;52.742;15.242;2022-10-26T04:49:10;42.38;;;13.80;;
69334;SDS011;56477;52.742;15.242;2022-10-26T04:51:36;46.70;;;12.95;;
69334;SDS011;56477;52.742;15.242;2022-10-26T04:54:02;33.78;;;12.20;;
69334;SDS011;56477;52.742;15.242;2022-10-26T04:56:29;34.03;;;11.20;;
69334;SDS011;56477;52.742;15.242;2022-10-26T04:58:55;36.47;;;11.13;;
69334;SDS011;56477;52.742;15.242;2022-10-26T05:01:21;36.13;;;11.07;;
69334;SDS011;56477;52.742;15.242;2022-10-26T05:03:49;33.33;;;11.30;;
69334;SDS011;56477;52.742;15.242;2022-10-26T05:06:15;34.53;;;10.77;;
69334;SDS011;56477;52.742;15.242;2022-10-26T05:08:42;32.15;;;10.82;;
69334;SDS011;56477;52.742;15.242;2022-10-26T05:11:07;32.05;;;10.32;;
69334;SDS011;56477;52.742;15.242;2022-10-26T05:13:34;33.97;;;10.85;;
69334;SDS011;56477;52.742;15.242;2022-10-26T05:15:59;28.07;;;10.23;;
69334;SDS011;56477;52.742;15.242;2022-10-26T05:18:25;33.47;;;11.32;;
69334;SDS011;56477;52.742;15.242;2022-10-26T05:20:52;31.77;;;11.15;;
69334;SDS011;56477;52.742;15.242;2022-10-26T05:23:18;30.65;;;11.20;;
69334;SDS011;56477;52.742;15.242;2022-10-26T05:25:44;29.53;;;10.13;;
69334;SDS011;56477;52.742;15.242;2022-10-26T05:28:11;27.48;;;10.93;;
69334;SDS011;56477;52.742;15.242;2022-10-26T05:30:39;31.35;;;11.10;;
69334;SDS011;56477;52.742;15.242;2022-10-26T05:33:05;37.38;;;11.23;;
69334;SDS011;56477;52.742;15.242;2022-10-26T05:35:33;32.38;;;11.38;;
69334;SDS011;56477;52.742;15.242;2022-10-26T05:38:01;33.20;;;10.47;;
69334;SDS011;56477;52.742;15.242;2022-10-26T05:40:31;37.35;;;11.02;;
69334;SDS011;56477;52.742;15.242;2022-10-26T05:43:00;34.85;;;10.88;;
69334;SDS011;56477;52.742;15.242;2022-10-26T05:45:27;34.88;;;10.48;;
69334;SDS011;56477;52.742;15.242;2022-10-26T05:47:53;33.65;;;10.02;;
69334;SDS011;56477;52.742;15.242;2022-10-26T05:50:19;32.87;;;11.00;;
69334;SDS011;56477;52.742;15.242;2022-10-26T05:52:46;24.35;;;8.07;;
69334;SDS011;56477;52.742;15.242;2022-10-26T05:55:13;47.28;;;10.98;;
69334;SDS011;56477;52.742;15.242;2022-10-26T05:57:41;53.33;;;10.18;;
69334;SDS011;56477;52.742;15.242;2022-10-26T06:00:09;124.23;;;13.07;;
69334;SDS011;56477;52.742;15.242;2022-10-26T06:05:17;267.02;;;18.48;;
69334;SDS011;56477;52.742;15.242;2022-10-26T06:07:51;136.00;;;11.05;;
69334;SDS011;56477;52.742;15.242;2022-10-26T06:10:19;92.88;;;8.57;;
69334;SDS011;56477;52.742;15.242;2022-10-26T06:12:45;177.63;;;14.87;;
69334;SDS011;56477;52.742;15.242;2022-10-26T06:15:13;218.00;;;14.57;;
69334;SDS011;56477;52.742;15.242;2022-10-26T06:18:01;87.60;;;6.85;;
69334;SDS011;56477;52.742;15.242;2022-10-26T06:20:45;64.65;;;7.78;;
69334;SDS011;56477;52.742;15.242;2022-10-26T06:29:23;66.82;;;9.70;;
69334;SDS011;56477;52.742;15.242;2022-10-26T06:32:08;41.63;;;7.55;;
69334;SDS011;56477;52.742;15.242;2022-10-26T06:34:35;72.68;;;8.93;;
69334;SDS011;56477;52.742;15.242;2022-10-26T06:37:03;74.28;;;8.63;;
69334;SDS011;56477;52.742;15.242;2022-10-26T06:39:30;107.13;;;10.80;;
69334;SDS011;56477;52.742;15.242;2022-10-26T06:42:01;56.28;;;7.68;;
69334;SDS011;56477;52.742;15.242;2022-10-26T06:44:27;92.30;;;9.05;;
69334;SDS011;56477;52.742;15.242;2022-10-26T06:47:03;104.25;;;10.30;;
69334;SDS011;56477;52.742;15.242;2022-10-26T06:52:17;83.40;;;9.03;;
69334;SDS011;56477;52.742;15.242;2022-10-26T06:54:54;74.72;;;10.10;;
69334;SDS011;56477;52.742;15.242;2022-10-26T06:57:21;86.72;;;8.93;;
69334;SDS011;56477;52.742;15.242;2022-10-26T07:00:02;96.50;;;10.85;;
69334;SDS011;56477;52.742;15.242;2022-10-26T07:02:48;70.20;;;8.52;;
69334;SDS011;56477;52.742;15.242;2022-10-26T07:05:14;63.47;;;8.53;;
69334;SDS011;56477;52.742;15.242;2022-10-26T07:07:41;31.77;;;7.47;;
69334;SDS011;56477;52.742;15.242;2022-10-26T07:10:09;51.70;;;9.40;;
69334;SDS011;56477;52.742;15.242;2022-10-26T07:12:36;53.60;;;10.40;;
69334;SDS011;56477;52.742;15.242;2022-10-26T07:15:03;46.50;;;9.02;;
69334;SDS011;56477;52.742;15.242;2022-10-26T07:17:29;145.00;;;14.10;;
69334;SDS011;56477;52.742;15.242;2022-10-26T07:19:55;127.32;;;14.55;;
69334;SDS011;56477;52.742;15.242;2022-10-26T07:22:22;48.38;;;11.15;;
69334;SDS011;56477;52.742;15.242;2022-10-26T07:24:49;103.72;;;13.05;;
69334;SDS011;56477;52.742;15.242;2022-10-26T07:27:16;105.67;;;9.93;;
69334;SDS011;56477;52.742;15.242;2022-10-26T07:29:45;79.80;;;8.77;;
69334;SDS011;56477;52.742;15.242;2022-10-26T07:32:11;133.18;;;11.55;;
69334;SDS011;56477;52.742;15.242;2022-10-26T07:34:38;110.18;;;10.23;;
69334;SDS011;56477;52.742;15.242;2022-10-26T07:37:03;63.93;;;8.90;;
69334;SDS011;56477;52.742;15.242;2022-10-26T07:39:30;177.75;;;13.82;;
69334;SDS011;56477;52.742;15.242;2022-10-26T07:41:57;265.50;;;18.77;;
69334;SDS011;56477;52.742;15.242;2022-10-26T07:44:23;57.20;;;9.25;;
69334;SDS011;56477;52.742;15.242;2022-10-26T07:46:50;65.83;;;8.17;;
69334;SDS011;56477;52.742;15.242;2022-10-26T07:49:16;125.60;;;11.30;;
69334;SDS011;56477;52.742;15.242;2022-10-26T07:51:43;50.20;;;9.35;;
69334;SDS011;56477;52.742;15.242;2022-10-26T07:54:09;108.00;;;11.70;;
69334;SDS011;56477;52.742;15.242;2022-10-26T07:56:35;75.93;;;10.13;;
69334;SDS011;56477;52.742;15.242;2022-10-26T07:59:01;32.55;;;7.05;;
69334;SDS011;56477;52.742;15.242;2022-10-26T08:01:27;61.13;;;8.63;;
69334;SDS011;56477;52.742;15.242;2022-10-26T08:03:53;67.63;;;11.43;;
69334;SDS011;56477;52.742;15.242;2022-10-26T08:06:20;60.53;;;9.20;;
69334;SDS011;56477;52.742;15.242;2022-10-26T08:08:46;52.53;;;8.55;;
69334;SDS011;56477;52.742;15.242;2022-10-26T08:11:13;57.33;;;9.35;;
69334;SDS011;56477;52.742;15.242;2022-10-26T08:13:39;81.10;;;9.50;;
69334;SDS011;56477;52.742;15.242;2022-10-26T08:16:05;72.43;;;8.60;;
69334;SDS011;56477;52.742;15.242;2022-10-26T08:18:31;77.13;;;8.27;;
69334;SDS011;56477;52.742;15.242;2022-10-26T08:21:04;63.75;;;9.90;;
69334;SDS011;56477;52.742;15.242;2022-10-26T08:23:32;32.08;;;7.63;;
69334;SDS011;56477;52.742;15.242;2022-10-26T08:25:58;77.40;;;15.88;;
69334;SDS011;56477;52.742;15.242;2022-10-26T08:28:25;110.43;;;10.60;;
69334;SDS011;56477;52.742;15.242;2022-10-26T08:30:52;99.67;;;11.33;;
69334;SDS011;56477;52.742;15.242;2022-10-26T08:33:18;136.85;;;11.77;;
69334;SDS011;56477;52.742;15.242;2022-10-26T08:35:45;123.63;;;11.93;;
69334;SDS011;56477;52.742;15.242;2022-10-26T08:38:11;66.47;;;11.50;;
69334;SDS011;56477;52.742;15.242;2022-10-26T08:40:38;70.93;;;11.70;;
69334;SDS011;56477;52.742;15.242;2022-10-26T08:45:59;74.90;;;12.07;;
69334;SDS011;56477;52.742;15.242;2022-10-26T08:48:37;42.45;;;12.00;;
69334;SDS011;56477;52.742;15.242;2022-10-26T08:51:17;57.80;;;12.75;;
69334;SDS011;56477;52.742;15.242;2022-10-26T08:56:14;47.08;;;13.75;;
69334;SDS011;56477;52.742;15.242;2022-10-26T08:58:46;29.50;;;12.88;;
69334;SDS011;56477;52.742;15.242;2022-10-26T09:01:18;51.83;;;12.45;;
69334;SDS011;56477;52.742;15.242;2022-10-26T09:03:45;78.43;;;13.30;;
69334;SDS011;56477;52.742;15.242;2022-10-26T09:08:43;55.78;;;13.30;;
69334;SDS011;56477;52.742;15.242;2022-10-26T09:14:45;26.53;;;11.97;;
69334;SDS011;56477;52.742;15.242;2022-10-26T09:17:03;26.70;;;11.15;;
69334;SDS011;56477;52.742;15.242;2022-10-26T09:22:21;25.73;;;10.30;;
69334;SDS011;56477;52.742;15.242;2022-10-26T09:25:17;20.13;;;9.60;;
69334;SDS011;56477;52.742;15.242;2022-10-26T09:27:55;16.17;;;9.53;;
69334;SDS011;56477;52.742;15.242;2022-10-26T09:30:25;20.30;;;9.13;;
69334;SDS011;56477;52.742;15.242;2022-10-26T09:32:52;19.35;;;10.00;;
69334;SDS011;56477;52.742;15.242;2022-10-26T09:37:56;16.90;;;9.35;;
69334;SDS011;56477;52.742;15.242;2022-10-26T09:43:19;15.98;;;8.82;;
69334;SDS011;56477;52.742;15.242;2022-10-26T09:45:52;16.25;;;9.27;;
69334;SDS011;56477;52.742;15.242;2022-10-26T09:48:35;11.48;;;7.15;;
69334;SDS011;56477;52.742;15.242;2022-10-26T09:51:06;12.98;;;7.65;;
69334;SDS011;56477;52.742;15.242;2022-10-26T09:53:32;12.87;;;7.77;;
69334;SDS011;56477;52.742;15.242;2022-10-26T09:56:05;15.63;;;7.93;;
69334;SDS011;56477;52.742;15.242;2022-10-26T09:58:34;15.60;;;9.40;;
69334;SDS011;56477;52.742;15.242;2022-10-26T10:01:06;14.82;;;8.63;;
69334;SDS011;56477;52.742;15.242;2022-10-26T10:03:32;14.47;;;8.57;;
69334;SDS011;56477;52.742;15.242;2022-10-26T10:08:40;19.92;;;9.02;;
69334;SDS011;56477;52.742;15.242;2022-10-26T10:11:07;16.50;;;9.50;;
69334;SDS011;56477;52.742;15.242;2022-10-26T10:13:41;14.10;;;7.63;;
69334;SDS011;56477;52.742;15.242;2022-10-26T10:18:43;9.80;;;6.20;;
69334;SDS011;56477;52.742;15.242;2022-10-26T10:21:18;13.90;;;7.20;;
69334;SDS011;56477;52.742;15.242;2022-10-26T10:23:48;12.77;;;6.68;;
69334;SDS011;56477;52.742;15.242;2022-10-26T10:26:19;14.25;;;7.18;;
69334;SDS011;56477;52.742;15.242;2022-10-26T10:28:54;13.38;;;7.20;;
69334;SDS011;56477;52.742;15.242;2022-10-26T10:31:29;14.97;;;7.27;;
69334;SDS011;56477;52.742;15.242;2022-10-26T10:33:57;16.45;;;7.00;;
69334;SDS011;56477;52.742;15.242;2022-10-26T10:36:27;17.63;;;7.70;;
69334;SDS011;56477;52.742;15.242;2022-10-26T10:38:54;16.00;;;7.50;;
69334;SDS011;56477;52.742;15.242;2022-10-26T10:41:31;10.68;;;6.43;;
69334;SDS011;56477;52.742;15.242;2022-10-26T10:44:33;12.87;;;6.93;;
69334;SDS011;56477;52.742;15.242;2022-10-26T10:47:04;12.20;;;7.03;;
69334;SDS011;56477;52.742;15.242;2022-10-26T10:49:31;13.05;;;6.75;;
69334;SDS011;56477;52.742;15.242;2022-10-26T10:51:58;10.75;;;6.00;;
69334;SDS011;56477;52.742;15.242;2022-10-26T11:00:05;10.38;;;6.32;;
69334;SDS011;56477;52.742;15.242;2022-10-26T11:02:43;11.30;;;6.32;;
69334;SDS011;56477;52.742;15.242;2022-10-26T11:06:28;15.70;;;7.30;;
69334;SDS011;56477;52.742;15.242;2022-10-26T11:11:19;13.63;;;7.53;;
69334;SDS011;56477;52.742;15.242;2022-10-26T11:19:58;12.18;;;7.32;;
69334;SDS011;56477;52.742;15.242;2022-10-26T11:22:35;11.05;;;6.93;;
69334;SDS011;56477;52.742;15.242;2022-10-26T11:30:14;12.35;;;7.70;;
69334;SDS011;56477;52.742;15.242;2022-10-26T11:38:00;12.23;;;6.53;;
69334;SDS011;56477;52.742;15.242;2022-10-26T11:40:35;13.68;;;6.55;;
69334;SDS011;56477;52.742;15.242;2022-10-26T11:46:00;10.93;;;5.80;;
69334;SDS011;56477;52.742;15.242;2022-10-26T11:48:27;9.75;;;5.97;;
69334;SDS011;56477;52.742;15.242;2022-10-26T11:51:00;10.70;;;5.90;;
69334;SDS011;56477;52.742;15.242;2022-10-26T11:53:38;8.57;;;5.85;;
69334;SDS011;56477;52.742;15.242;2022-10-26T11:56:13;9.57;;;6.10;;
69334;SDS011;56477;52.742;15.242;2022-10-26T11:58:46;9.20;;;5.40;;
69334;SDS011;56477;52.742;15.242;2022-10-26T12:01:13;8.20;;;5.50;;
69334;SDS011;56477;52.742;15.242;2022-10-26T12:03:45;9.53;;;5.67;;
69334;SDS011;56477;52.742;15.242;2022-10-26T12:06:14;9.13;;;5.27;;
69334;SDS011;56477;52.742;15.242;2022-10-26T12:09:04;10.55;;;5.28;;
69334;SDS011;56477;52.742;15.242;2022-10-26T12:11:46;12.07;;;5.70;;
69334;SDS011;56477;52.742;15.242;2022-10-26T12:14:26;10.65;;;5.78;;
69334;SDS011;56477;52.742;15.242;2022-10-26T12:17:08;9.65;;;5.20;;
69334;SDS011;56477;52.742;15.242;2022-10-26T12:19:50;11.53;;;6.03;;
69334;SDS011;56477;52.742;15.242;2022-10-26T12:22:36;9.85;;;4.93;;
69334;SDS011;56477;52.742;15.242;2022-10-26T12:25:06;8.98;;;4.93;;
69334;SDS011;56477;52.742;15.242;2022-10-26T12:30:49;9.40;;;5.47;;
69334;SDS011;56477;52.742;15.242;2022-10-26T12:32:53;8.80;;;4.23;;
69334;SDS011;56477;52.742;15.242;2022-10-26T12:35:30;9.82;;;4.20;;
69334;SDS011;56477;52.742;15.242;2022-10-26T12:37:57;9.07;;;4.57;;
69334;SDS011;56477;52.742;15.242;2022-10-26T12:45:40;7.60;;;4.70;;
69334;SDS011;56477;52.742;15.242;2022-10-26T12:48:20;8.73;;;4.40;;
69334;SDS011;56477;52.742;15.242;2022-10-26T12:54:22;8.98;;;4.30;;
69334;SDS011;56477;52.742;15.242;2022-10-26T12:57:15;6.45;;;4.40;;
69334;SDS011;56477;52.742;15.242;2022-10-26T12:59:54;10.65;;;5.15;;
69334;SDS011;56477;52.742;15.242;2022-10-26T13:08:14;7.63;;;4.00;;
69334;SDS011;56477;52.742;15.242;2022-10-26T13:10:58;7.72;;;4.28;;
69334;SDS011;56477;52.742;15.242;2022-10-26T13:13:27;10.55;;;4.00;;
69334;SDS011;56477;52.742;15.242;2022-10-26T13:15:56;7.50;;;3.90;;
69334;SDS011;56477;52.742;15.242;2022-10-26T13:18:23;5.90;;;3.40;;
69334;SDS011;56477;52.742;15.242;2022-10-26T13:23:36;7.82;;;3.63;;
69334;SDS011;56477;52.742;15.242;2022-10-26T13:26:15;5.82;;;3.75;;
69334;SDS011;56477;52.742;15.242;2022-10-26T13:28:50;7.07;;;3.90;;
69334;SDS011;56477;52.742;15.242;2022-10-26T13:33:57;6.23;;;3.67;;
69334;SDS011;56477;52.742;15.242;2022-10-26T13:36:48;7.65;;;3.42;;
69334;SDS011;56477;52.742;15.242;2022-10-26T13:39:46;7.03;;;3.40;;
69334;SDS011;56477;52.742;15.242;2022-10-26T13:42:18;7.88;;;3.10;;
69334;SDS011;56477;52.742;15.242;2022-10-26T13:45:08;4.97;;;2.80;;
69334;SDS011;56477;52.742;15.242;2022-10-26T13:50:23;5.20;;;2.30;;
69334;SDS011;56477;52.742;15.242;2022-10-26T13:52:53;4.13;;;2.50;;
69334;SDS011;56477;52.742;15.242;2022-10-26T13:55:27;4.10;;;1.85;;
69334;SDS011;56477;52.742;15.242;2022-10-26T14:00:22;3.13;;;1.73;;
69334;SDS011;56477;52.742;15.242;2022-10-26T14:02:48;3.38;;;1.70;;
69334;SDS011;56477;52.742;15.242;2022-10-26T14:05:15;4.70;;;1.50;;
69334;SDS011;56477;52.742;15.242;2022-10-26T14:07:52;3.40;;;1.50;;
69334;SDS011;56477;52.742;15.242;2022-10-26T14:12:53;4.57;;;2.28;;
69334;SDS011;56477;52.742;15.242;2022-10-26T14:15:23;11.60;;;5.57;;
69334;SDS011;56477;52.742;15.242;2022-10-26T14:17:52;13.00;;;5.38;;
69334;SDS011;56477;52.742;15.242;2022-10-26T14:20:21;6.57;;;2.22;;
69334;SDS011;56477;52.742;15.242;2022-10-26T14:22:48;4.87;;;1.67;;
69334;SDS011;56477;52.742;15.242;2022-10-26T14:25:19;6.18;;;1.48;;
69334;SDS011;56477;52.742;15.242;2022-10-26T14:27:47;4.93;;;1.58;;
69334;SDS011;56477;52.742;15.242;2022-10-26T14:30:30;6.22;;;2.05;;
69334;SDS011;56477;52.742;15.242;2022-10-26T14:32:57;4.97;;;2.22;;
69334;SDS011;56477;52.742;15.242;2022-10-26T14:35:25;6.03;;;2.03;;
69334;SDS011;56477;52.742;15.242;2022-10-26T14:40:24;6.82;;;2.83;;
69334;SDS011;56477;52.742;15.242;2022-10-26T14:42:53;5.40;;;2.42;;
69334;SDS011;56477;52.742;15.242;2022-10-26T14:47:51;4.90;;;2.40;;
69334;SDS011;56477;52.742;15.242;2022-10-26T14:50:19;5.88;;;2.17;;
69334;SDS011;56477;52.742;15.242;2022-10-26T14:52:50;5.00;;;2.30;;
69334;SDS011;56477;52.742;15.242;2022-10-26T14:55:19;8.25;;;2.40;;
69334;SDS011;56477;52.742;15.242;2022-10-26T14:57:47;7.40;;;2.47;;
69334;SDS011;56477;52.742;15.242;2022-10-26T15:02:46;4.60;;;1.85;;
69334;SDS011;56477;52.742;15.242;2022-10-26T15:07:54;6.72;;;3.45;;
69334;SDS011;56477;52.742;15.242;2022-10-26T15:15:43;7.50;;;2.55;;
69334;SDS011;56477;52.742;15.242;2022-10-26T15:18:15;5.38;;;2.22;;
69334;SDS011;56477;52.742;15.242;2022-10-26T15:20:45;7.45;;;2.95;;
69334;SDS011;56477;52.742;15.242;2022-10-26T15:23:14;5.10;;;2.30;;
69334;SDS011;56477;52.742;15.242;2022-10-26T15:25:48;4.27;;;2.10;;
69334;SDS011;56477;52.742;15.242;2022-10-26T15:34:21;11.63;;;3.30;;
69334;SDS011;56477;52.742;15.242;2022-10-26T15:36:28;8.32;;;3.55;;
69334;SDS011;56477;52.742;15.242;2022-10-26T15:38:56;8.60;;;3.50;;
69334;SDS011;56477;52.742;15.242;2022-10-26T15:41:25;9.02;;;3.70;;
69334;SDS011;56477;52.742;15.242;2022-10-26T15:43:54;8.52;;;3.90;;
69334;SDS011;56477;52.742;15.242;2022-10-26T15:46:22;10.40;;;5.10;;
69334;SDS011;56477;52.742;15.242;2022-10-26T15:48:52;13.13;;;5.80;;
69334;SDS011;56477;52.742;15.242;2022-10-26T15:51:20;12.87;;;5.33;;
69334;SDS011;56477;52.742;15.242;2022-10-26T15:53:46;10.75;;;5.43;;
69334;SDS011;56477;52.742;15.242;2022-10-26T15:56:20;11.15;;;5.78;;
69334;SDS011;56477;52.742;15.242;2022-10-26T15:58:48;14.05;;;5.80;;
69334;SDS011;56477;52.742;15.242;2022-10-26T16:01:15;10.27;;;5.13;;
69334;SDS011;56477;52.742;15.242;2022-10-26T16:03:44;13.50;;;5.50;;
69334;SDS011;56477;52.742;15.242;2022-10-26T16:06:19;10.10;;;5.40;;
69334;SDS011;56477;52.742;15.242;2022-10-26T16:08:56;11.80;;;6.55;;
69334;SDS011;56477;52.742;15.242;2022-10-26T16:11:23;15.40;;;7.03;;
69334;SDS011;56477;52.742;15.242;2022-10-26T16:13:49;12.68;;;6.47;;
69334;SDS011;56477;52.742;15.242;2022-10-26T16:16:15;10.20;;;5.77;;
69334;SDS011;56477;52.742;15.242;2022-10-26T16:18:42;10.68;;;6.07;;
69334;SDS011;56477;52.742;15.242;2022-10-26T16:21:12;18.15;;;7.30;;
69334;SDS011;56477;52.742;15.242;2022-10-26T16:23:40;17.65;;;7.60;;
69334;SDS011;56477;52.742;15.242;2022-10-26T16:26:10;13.70;;;8.63;;
69334;SDS011;56477;52.742;15.242;2022-10-26T16:28:37;15.80;;;8.00;;
69334;SDS011;56477;52.742;15.242;2022-10-26T16:31:04;14.38;;;7.55;;
69334;SDS011;56477;52.742;15.242;2022-10-26T16:33:33;13.27;;;7.32;;
69334;SDS011;56477;52.742;15.242;2022-10-26T16:36:00;15.13;;;7.25;;
69334;SDS011;56477;52.742;15.242;2022-10-26T16:38:26;15.65;;;7.30;;
69334;SDS011;56477;52.742;15.242;2022-10-26T16:41:06;12.40;;;7.00;;
69334;SDS011;56477;52.742;15.242;2022-10-26T16:43:33;16.13;;;8.57;;
69334;SDS011;56477;52.742;15.242;2022-10-26T16:46:05;13.82;;;7.20;;
69334;SDS011;56477;52.742;15.242;2022-10-26T16:48:35;12.80;;;7.15;;
69334;SDS011;56477;52.742;15.242;2022-10-26T16:51:06;14.27;;;7.05;;
69334;SDS011;56477;52.742;15.242;2022-10-26T16:53:37;16.80;;;7.97;;
69334;SDS011;56477;52.742;15.242;2022-10-26T16:56:14;17.30;;;8.13;;
69334;SDS011;56477;52.742;15.242;2022-10-26T16:58:41;17.70;;;8.85;;
69334;SDS011;56477;52.742;15.242;2022-10-26T17:01:08;15.70;;;7.93;;
69334;SDS011;56477;52.742;15.242;2022-10-26T17:03:35;19.42;;;8.75;;
69334;SDS011;56477;52.742;15.242;2022-10-26T17:06:02;16.43;;;8.30;;